createdAt,value
2023-03-06T00:00:35.229Z,28.13
2023-03-06T00:03:18.976Z,27.08
2023-03-06T00:05:47.349Z,27.27
2023-03-06T00:08:15.598Z,28.17
2023-03-06T00:10:43.889Z,27.60
2023-03-06T00:13:15.536Z,28.67
2023-03-06T00:15:43.816Z,31.70
2023-03-06T00:18:12.259Z,31.73
2023-03-06T00:20:43.169Z,36.58
2023-03-06T00:23:11.593Z,33.47
2023-03-06T00:25:43.391Z,32.58
2023-03-06T00:28:12.261Z,31.45
2023-03-06T00:30:40.731Z,30.73
2023-03-06T00:33:08.679Z,30.70
2023-03-06T00:35:36.905Z,30.88
2023-03-06T00:38:06.205Z,29.25
2023-03-06T00:40:34.675Z,28.55
2023-03-06T00:43:02.574Z,30.20
2023-03-06T00:45:31.315Z,29.88
2023-03-06T00:47:59.312Z,29.17
2023-03-06T00:50:27.743Z,29.98
2023-03-06T00:52:55.672Z,30.15
2023-03-06T00:55:25.182Z,28.10
2023-03-06T00:57:53.142Z,28.92
2023-03-06T01:00:21.645Z,28.00
2023-03-06T01:02:49.565Z,26.90
2023-03-06T01:05:18.009Z,28.38
2023-03-06T01:07:45.917Z,29.40
2023-03-06T01:10:14.139Z,26.63
2023-03-06T01:12:43.612Z,27.70
2023-03-06T01:15:12.647Z,28.75
2023-03-06T01:17:40.671Z,28.00
2023-03-06T01:20:11.414Z,27.30
2023-03-06T01:22:39.401Z,27.00
2023-03-06T01:25:08.086Z,27.10
2023-03-06T01:27:36.227Z,28.15
2023-03-06T01:30:06.933Z,27.02
2023-03-06T01:32:35.093Z,28.27
2023-03-06T01:35:04.031Z,28.02
2023-03-06T01:37:32.115Z,28.42
2023-03-06T01:40:00.321Z,27.25
2023-03-06T01:42:28.338Z,25.50
2023-03-06T01:45:01.371Z,26.80
2023-03-06T01:47:30.656Z,25.95
2023-03-06T01:49:59.994Z,28.80
2023-03-06T01:52:30.973Z,28.92
2023-03-06T01:55:02.519Z,28.73
2023-03-06T01:57:32.270Z,25.98
2023-03-06T02:00:05.061Z,25.55
2023-03-06T02:02:34.418Z,24.27
2023-03-06T02:05:03.456Z,26.70
2023-03-06T02:07:31.849Z,26.00
2023-03-06T02:10:00.270Z,24.63
2023-03-06T02:12:28.475Z,26.00
2023-03-06T02:14:57.060Z,25.38
2023-03-06T02:17:25.826Z,26.77
2023-03-06T02:19:59.927Z,26.92
2023-03-06T02:22:32.899Z,25.15
2023-03-06T02:25:05.954Z,24.92
2023-03-06T02:27:35.322Z,23.50
2023-03-06T02:30:07.868Z,23.25
2023-03-06T02:32:36.082Z,23.58
2023-03-06T02:35:04.736Z,25.67
2023-03-06T02:37:32.639Z,28.27
2023-03-06T02:40:08.875Z,28.58
2023-03-06T02:42:38.213Z,29.02
2023-03-06T02:45:09.131Z,27.58
2023-03-06T02:47:37.030Z,29.48
2023-03-06T02:50:05.752Z,31.00
2023-03-06T02:52:33.733Z,28.08
2023-03-06T02:55:02.028Z,28.85
2023-03-06T02:57:29.954Z,28.05
2023-03-06T02:59:59.458Z,29.02
2023-03-06T03:02:27.591Z,27.48
2023-03-06T03:04:55.844Z,28.73
2023-03-06T03:07:23.802Z,25.83
2023-03-06T03:09:51.999Z,25.63
2023-03-06T03:12:19.956Z,26.52
2023-03-06T03:14:48.109Z,25.55
2023-03-06T03:17:17.513Z,23.02
2023-03-06T03:19:45.684Z,26.67
2023-03-06T03:22:13.589Z,27.23
2023-03-06T03:24:42.405Z,25.15
2023-03-06T03:27:11.067Z,27.02
2023-03-06T03:29:39.290Z,26.05
2023-03-06T03:32:07.991Z,24.83
2023-03-06T03:34:37.562Z,26.45
2023-03-06T03:37:05.832Z,25.40
2023-03-06T03:39:34.431Z,27.13
2023-03-06T03:42:02.530Z,24.77
2023-03-06T03:44:30.866Z,25.48
2023-03-06T03:46:58.762Z,23.77
2023-03-06T03:49:26.968Z,25.13
2023-03-06T03:51:56.379Z,24.77
2023-03-06T03:54:24.827Z,24.67
2023-03-06T03:56:52.753Z,25.13
2023-03-06T03:59:21.048Z,23.70
2023-03-06T04:01:49.349Z,24.17
2023-03-06T04:04:17.615Z,24.05
2023-03-06T04:06:45.730Z,22.85
2023-03-06T04:09:15.340Z,23.23
2023-03-06T04:11:43.298Z,22.63
2023-03-06T04:14:11.503Z,22.05
2023-03-06T04:16:39.520Z,21.40
2023-03-06T04:19:07.692Z,23.63
2023-03-06T04:21:35.638Z,23.42
2023-03-06T04:24:04.381Z,20.10
2023-03-06T04:26:33.693Z,21.73
2023-03-06T04:29:02.158Z,23.25
2023-03-06T04:31:30.223Z,25.50
2023-03-06T04:33:58.418Z,25.00
2023-03-06T04:36:28.600Z,23.15
2023-03-06T04:38:56.892Z,23.42
2023-03-06T04:41:24.995Z,22.88
2023-03-06T04:43:55.052Z,21.13
2023-03-06T04:46:23.006Z,22.33
2023-03-06T04:48:51.370Z,22.73
2023-03-06T04:51:19.319Z,23.65
2023-03-06T04:53:47.619Z,22.08
2023-03-06T04:56:15.551Z,22.15
2023-03-06T04:58:44.425Z,21.45
2023-03-06T05:01:13.769Z,22.17
2023-03-06T05:03:42.159Z,22.27
2023-03-06T05:06:11.426Z,24.35
2023-03-06T05:08:39.913Z,23.90
2023-03-06T05:11:07.984Z,23.95
2023-03-06T05:13:36.172Z,23.33
2023-03-06T05:16:05.505Z,22.73
2023-03-06T05:18:35.684Z,20.63
2023-03-06T05:21:04.709Z,22.42
2023-03-06T05:23:34.961Z,22.20
2023-03-06T05:26:06.768Z,23.42
2023-03-06T05:28:35.038Z,23.58
2023-03-06T05:31:03.579Z,24.48
2023-03-06T05:33:32.979Z,23.08
2023-03-06T05:36:02.832Z,23.25
2023-03-06T05:38:31.106Z,22.90
2023-03-06T05:40:59.050Z,22.77
2023-03-06T05:43:27.275Z,20.20
2023-03-06T05:46:01.926Z,21.27
2023-03-06T05:48:30.463Z,19.75
2023-03-06T05:50:58.711Z,21.42
2023-03-06T05:53:29.256Z,24.65
2023-03-06T05:55:58.317Z,24.48
2023-03-06T05:58:26.955Z,23.77
2023-03-06T06:00:55.194Z,26.50
2023-03-06T06:03:23.572Z,26.50
2023-03-06T06:05:51.778Z,27.92
2023-03-06T06:08:20.256Z,27.63
2023-03-06T06:10:52.165Z,27.67
2023-03-06T06:13:21.482Z,27.90
2023-03-06T06:15:49.477Z,27.98
2023-03-06T06:18:17.857Z,28.80
2023-03-06T06:20:46.018Z,27.90
2023-03-06T06:23:14.275Z,27.40
2023-03-06T06:25:42.428Z,25.23
2023-03-06T06:28:13.056Z,25.77
2023-03-06T06:30:40.961Z,27.13
2023-03-06T06:33:09.164Z,29.27
2023-03-06T06:35:37.816Z,28.15
2023-03-06T06:38:06.168Z,30.80
2023-03-06T06:40:34.130Z,28.67
2023-03-06T06:43:02.368Z,25.02
2023-03-06T06:45:31.623Z,26.02
2023-03-06T06:47:59.948Z,25.45
2023-03-06T06:50:28.067Z,26.80
2023-03-06T06:52:56.409Z,24.70
2023-03-06T06:55:24.302Z,27.38
2023-03-06T06:57:52.656Z,25.65
2023-03-06T07:00:21.462Z,21.25
2023-03-06T07:02:51.271Z,20.08
2023-03-06T07:05:21.769Z,22.77
2023-03-06T07:07:51.297Z,21.20
2023-03-06T07:10:21.028Z,20.23
2023-03-06T07:12:49.387Z,20.38
2023-03-06T07:15:18.501Z,22.17
2023-03-06T07:17:49.481Z,20.35
2023-03-06T07:20:20.358Z,20.05
2023-03-06T07:22:51.773Z,21.08
2023-03-06T07:25:20.634Z,19.98
2023-03-06T07:27:53.386Z,16.85
2023-03-06T07:30:23.020Z,19.05
2023-03-06T07:32:54.221Z,15.65
2023-03-06T07:35:24.301Z,17.05
2023-03-06T07:37:52.632Z,16.83
2023-03-06T07:40:21.507Z,17.73
2023-03-06T07:42:49.875Z,17.88
2023-03-06T07:45:17.879Z,17.55
2023-03-06T07:47:46.953Z,17.40
2023-03-06T07:50:14.966Z,14.73
2023-03-06T07:52:44.614Z,13.68
2023-03-06T07:55:13.177Z,14.15
2023-03-06T07:57:41.696Z,13.35
2023-03-06T08:00:13.250Z,12.13
2023-03-06T08:02:42.442Z,9.95
2023-03-06T08:05:13.666Z,11.00
2023-03-06T08:07:42.001Z,10.80
2023-03-06T08:10:14.628Z,11.52
2023-03-06T08:12:43.069Z,10.75
2023-03-06T08:15:12.404Z,10.45
2023-03-06T08:17:40.947Z,10.07
2023-03-06T08:20:10.617Z,9.85
2023-03-06T08:22:39.043Z,9.70
2023-03-06T08:25:08.153Z,10.45
2023-03-06T08:27:37.754Z,10.30
2023-03-06T08:30:06.360Z,9.25
2023-03-06T08:32:36.426Z,8.60
2023-03-06T08:35:04.514Z,8.00
2023-03-06T08:37:32.763Z,7.93
2023-03-06T08:40:02.904Z,8.00
2023-03-06T08:42:31.434Z,8.45
2023-03-06T08:45:00.893Z,7.45
2023-03-06T08:47:29.752Z,7.38
2023-03-06T08:50:00.186Z,8.13
2023-03-06T08:52:29.181Z,7.13
2023-03-06T08:54:57.944Z,8.20
2023-03-06T08:57:26.314Z,7.50
2023-03-06T08:59:54.685Z,6.72
2023-03-06T09:02:24.289Z,5.78
2023-03-06T09:04:52.410Z,6.70
2023-03-06T09:07:21.153Z,4.47
2023-03-06T09:09:49.109Z,4.65
2023-03-06T09:12:17.341Z,4.15
2023-03-06T09:14:45.407Z,4.68
2023-03-06T09:17:13.776Z,4.88
2023-03-06T09:19:43.083Z,4.85
2023-03-06T09:22:11.381Z,5.72
2023-03-06T09:24:39.662Z,8.90
2023-03-06T09:27:07.987Z,5.72
2023-03-06T09:29:36.003Z,5.03
2023-03-06T09:32:04.254Z,5.45
2023-03-06T09:34:32.322Z,19.08
2023-03-06T09:37:02.981Z,8.35
2023-03-06T09:39:31.086Z,6.03
2023-03-06T09:42:00.428Z,7.25
2023-03-06T09:44:31.933Z,10.38
2023-03-06T09:47:09.435Z,11.10
2023-03-06T09:49:42.167Z,5.97
2023-03-06T09:52:26.158Z,7.85
2023-03-06T09:54:55.871Z,5.55
2023-03-06T09:57:26.550Z,4.97
2023-03-06T09:59:56.757Z,8.45
2023-03-06T10:02:29.860Z,4.60
2023-03-06T10:05:01.853Z,4.80
2023-03-06T10:07:41.846Z,4.88
2023-03-06T10:10:18.762Z,5.40
2023-03-06T10:12:53.156Z,5.20
2023-03-06T10:15:24.057Z,5.15
2023-03-06T10:17:52.296Z,5.30
2023-03-06T10:20:22.651Z,5.72
2023-03-06T10:23:15.830Z,5.55
2023-03-06T10:25:49.903Z,5.50
2023-03-06T10:28:19.805Z,5.53
2023-03-06T10:30:53.638Z,14.82
2023-03-06T10:33:27.467Z,37.80
2023-03-06T10:35:56.855Z,7.50
2023-03-06T10:38:27.939Z,5.70
2023-03-06T10:41:03.847Z,6.63
2023-03-06T10:43:35.208Z,6.32
2023-03-06T10:46:05.301Z,6.82
2023-03-06T10:48:36.203Z,7.47
2023-03-06T10:51:19.377Z,6.18
2023-03-06T10:53:54.778Z,6.22
2023-03-06T10:56:30.964Z,7.35
2023-03-06T10:59:12.145Z,6.03
2023-03-06T11:01:40.773Z,5.72
2023-03-06T11:04:17.786Z,6.60
2023-03-06T11:06:45.886Z,6.65
2023-03-06T11:09:23.390Z,7.30
2023-03-06T11:11:51.573Z,6.80
2023-03-06T11:14:22.868Z,6.93
2023-03-06T11:16:54.564Z,6.63
2023-03-06T11:19:27.251Z,6.13
2023-03-06T11:22:03.442Z,7.22
2023-03-06T11:24:38.089Z,7.30
2023-03-06T11:27:19.223Z,8.02
2023-03-06T11:29:48.594Z,7.57
2023-03-06T11:32:21.566Z,7.70
2023-03-06T11:34:53.315Z,7.03
2023-03-06T11:37:26.278Z,7.18
2023-03-06T11:40:02.051Z,8.13
2023-03-06T11:42:32.741Z,7.40
2023-03-06T11:45:22.129Z,8.25
2023-03-06T11:47:55.453Z,6.95
2023-03-06T11:50:28.960Z,7.18
2023-03-06T11:53:00.312Z,7.22
2023-03-06T11:55:41.544Z,8.25
2023-03-06T11:58:30.138Z,7.15
2023-03-06T12:01:02.253Z,7.47
2023-03-06T12:03:55.816Z,8.18
2023-03-06T12:06:34.729Z,7.13
2023-03-06T12:09:20.913Z,9.85
2023-03-06T12:11:59.698Z,7.88
2023-03-06T12:14:44.141Z,7.38
2023-03-06T12:17:18.376Z,8.07
2023-03-06T12:20:16.685Z,6.63
2023-03-06T12:22:57.928Z,6.97
2023-03-06T12:25:36.465Z,7.43
2023-03-06T12:28:17.510Z,7.18
2023-03-06T12:31:06.961Z,7.03
2023-03-06T12:33:40.586Z,7.40
2023-03-06T12:36:32.939Z,7.00
2023-03-06T12:39:08.141Z,6.78
2023-03-06T12:41:54.323Z,7.40
2023-03-06T12:44:49.843Z,8.43
2023-03-06T12:47:21.166Z,7.03
2023-03-06T12:49:52.817Z,7.10
2023-03-06T12:52:29.609Z,8.50
2023-03-06T12:55:00.004Z,7.60
2023-03-06T12:57:28.224Z,7.95
2023-03-06T12:59:57.811Z,7.15
2023-03-06T13:02:55.268Z,7.68
2023-03-06T13:05:50.163Z,6.40
2023-03-06T13:08:31.336Z,7.22
2023-03-06T13:11:20.771Z,9.07
2023-03-06T13:13:49.394Z,7.55
2023-03-06T13:16:27.326Z,7.90
2023-03-06T13:19:00.255Z,7.70
2023-03-06T13:22:10.332Z,7.38
2023-03-06T13:24:38.666Z,7.72
2023-03-06T13:27:09.338Z,36.10
2023-03-06T13:29:53.961Z,7.90
2023-03-06T13:32:32.764Z,7.95
2023-03-06T13:35:01.390Z,7.97
2023-03-06T13:37:49.487Z,8.77
2023-03-06T13:40:28.736Z,7.75
2023-03-06T13:43:25.070Z,9.00
2023-03-06T13:45:53.255Z,8.02
2023-03-06T13:48:43.511Z,8.38
2023-03-06T13:51:17.219Z,8.77
2023-03-06T13:54:11.205Z,5.75
2023-03-06T13:57:11.858Z,4.68
2023-03-06T14:00:16.514Z,6.97
2023-03-06T14:03:25.060Z,4.93
2023-03-06T14:05:55.067Z,4.90
2023-03-06T14:08:24.897Z,4.78
2023-03-06T14:11:01.972Z,3.40
2023-03-06T14:13:45.323Z,3.40
2023-03-06T14:16:20.540Z,3.08
2023-03-06T14:18:49.747Z,3.40
2023-03-06T14:21:27.755Z,3.67
2023-03-06T14:24:00.717Z,4.10
2023-03-06T14:26:31.169Z,4.00
2023-03-06T14:29:00.720Z,4.18
2023-03-06T14:31:32.100Z,4.35
2023-03-06T14:34:01.700Z,4.85
2023-03-06T14:36:35.202Z,4.47
2023-03-06T14:39:06.155Z,4.70
2023-03-06T14:41:36.657Z,4.13
2023-03-06T14:44:19.448Z,5.03
2023-03-06T14:46:49.822Z,4.75
2023-03-06T14:49:19.932Z,5.72
2023-03-06T14:51:51.527Z,7.45
2023-03-06T14:54:22.314Z,5.80
2023-03-06T14:56:53.384Z,8.18
2023-03-06T14:59:25.787Z,10.70
2023-03-06T15:01:58.650Z,11.05
2023-03-06T15:04:30.193Z,7.03
2023-03-06T15:07:00.682Z,5.35
2023-03-06T15:09:30.531Z,5.75
2023-03-06T15:12:01.638Z,5.40
2023-03-06T15:14:35.994Z,4.68
2023-03-06T15:17:26.297Z,4.63
2023-03-06T15:19:55.617Z,6.22
2023-03-06T15:22:29.541Z,5.40
2023-03-06T15:25:18.834Z,6.65
2023-03-06T15:27:50.485Z,5.25
2023-03-06T15:30:28.156Z,4.97
2023-03-06T15:33:23.569Z,3.75
2023-03-06T15:35:57.102Z,4.50
2023-03-06T15:38:32.979Z,3.75
2023-03-06T15:41:03.250Z,4.03
2023-03-06T15:43:36.149Z,5.65
2023-03-06T15:46:06.297Z,3.70
2023-03-06T15:48:35.303Z,2.97
2023-03-06T15:51:05.372Z,3.38
2023-03-06T15:53:35.186Z,3.90
2023-03-06T15:56:03.227Z,5.32
2023-03-06T15:58:33.757Z,5.85
2023-03-06T16:01:01.973Z,4.70
2023-03-06T16:03:30.278Z,5.07
2023-03-06T16:05:58.334Z,38.67
2023-03-06T16:08:27.031Z,6.47
2023-03-06T16:10:56.349Z,4.15
2023-03-06T16:13:27.568Z,4.05
2023-03-06T16:15:56.821Z,4.00
2023-03-06T16:18:25.045Z,4.13
2023-03-06T16:20:53.144Z,5.50
2023-03-06T16:23:21.583Z,4.43
2023-03-06T16:25:50.416Z,4.72
2023-03-06T16:28:20.042Z,5.95
2023-03-06T16:30:48.270Z,5.55
2023-03-06T16:33:16.457Z,6.30
2023-03-06T16:35:46.786Z,5.95
2023-03-06T16:38:16.290Z,11.70
2023-03-06T16:40:44.351Z,15.80
2023-03-06T16:43:13.481Z,12.40
2023-03-06T16:45:43.437Z,12.23
2023-03-06T16:48:16.160Z,9.35
2023-03-06T16:50:44.370Z,8.35
2023-03-06T16:53:12.644Z,9.65
2023-03-06T16:55:41.005Z,7.85
2023-03-06T16:58:09.955Z,8.05
2023-03-06T17:00:37.890Z,9.15
2023-03-06T17:03:07.812Z,8.52
2023-03-06T17:05:37.524Z,7.32
2023-03-06T17:08:06.189Z,8.48
2023-03-06T17:10:34.554Z,9.02
2023-03-06T17:13:03.377Z,10.52
2023-03-06T17:15:31.498Z,9.07
2023-03-06T17:17:59.811Z,9.25
2023-03-06T17:20:29.513Z,10.18
2023-03-06T17:22:57.724Z,11.30
2023-03-06T17:25:26.043Z,12.50
2023-03-06T17:27:54.467Z,12.60
2023-03-06T17:30:22.521Z,18.52
2023-03-06T17:32:51.018Z,24.85
2023-03-06T17:35:19.271Z,15.52
2023-03-06T17:37:48.859Z,18.77
2023-03-06T17:40:17.080Z,18.75
2023-03-06T17:42:45.359Z,13.10
2023-03-06T17:45:13.824Z,12.43
2023-03-06T17:47:42.248Z,14.93
2023-03-06T17:50:11.630Z,14.70
2023-03-06T17:52:39.833Z,17.10
2023-03-06T17:55:10.186Z,17.00
2023-03-06T17:57:38.498Z,15.57
2023-03-06T18:00:08.147Z,13.88
2023-03-06T18:02:36.750Z,15.00
2023-03-06T18:05:05.362Z,13.10
2023-03-06T18:07:33.675Z,16.38
2023-03-06T18:10:01.974Z,19.52
2023-03-06T18:12:31.735Z,19.73
2023-03-06T18:15:00.221Z,15.88
2023-03-06T18:17:28.695Z,18.42
2023-03-06T18:19:56.904Z,16.95
2023-03-06T18:22:25.301Z,16.17
2023-03-06T18:24:53.473Z,15.13
2023-03-06T18:27:21.865Z,15.77
2023-03-06T18:29:52.141Z,16.60
2023-03-06T18:32:20.699Z,15.20
2023-03-06T18:34:50.544Z,14.90
2023-03-06T18:37:19.130Z,15.00
2023-03-06T18:39:47.611Z,15.43
2023-03-06T18:42:16.051Z,15.45
2023-03-06T18:44:47.665Z,15.25
2023-03-06T18:47:17.509Z,14.85
2023-03-06T18:49:46.234Z,14.10
2023-03-06T18:52:14.754Z,14.75
2023-03-06T18:54:43.272Z,15.68
2023-03-06T18:57:12.096Z,15.50
2023-03-06T18:59:40.230Z,16.10
2023-03-06T19:02:09.098Z,15.63
2023-03-06T19:04:38.772Z,14.55
2023-03-06T19:07:07.583Z,15.02
2023-03-06T19:09:36.009Z,16.73
2023-03-06T19:12:04.716Z,16.00
2023-03-06T19:14:32.679Z,15.88
2023-03-06T19:17:01.973Z,17.25
2023-03-06T19:19:30.607Z,16.23
2023-03-06T19:22:00.255Z,15.65
2023-03-06T19:24:28.364Z,16.17
2023-03-06T19:26:56.921Z,16.63
2023-03-06T19:29:24.844Z,15.55
2023-03-06T19:31:53.260Z,16.65
2023-03-06T19:34:21.573Z,16.45
2023-03-06T19:36:51.169Z,17.90
2023-03-06T19:39:20.617Z,17.30
2023-03-06T19:41:49.180Z,16.33
2023-03-06T19:44:17.217Z,17.77
2023-03-06T19:46:45.528Z,18.08
2023-03-06T19:49:16.744Z,17.48
2023-03-06T19:51:45.336Z,17.47
2023-03-06T19:54:13.740Z,19.27
2023-03-06T19:56:43.566Z,18.00
2023-03-06T19:59:11.919Z,16.17
2023-03-06T20:01:40.483Z,17.23
2023-03-06T20:04:08.832Z,16.33
2023-03-06T20:06:38.724Z,15.10
2023-03-06T20:09:08.666Z,17.25
2023-03-06T20:11:37.445Z,15.88
2023-03-06T20:14:08.656Z,15.35
2023-03-06T20:16:37.565Z,15.43
2023-03-06T20:19:06.578Z,15.05
2023-03-06T20:21:37.766Z,15.13
2023-03-06T20:24:07.019Z,14.52
2023-03-06T20:26:36.707Z,15.98
2023-03-06T20:29:06.225Z,15.50
2023-03-06T20:31:34.654Z,17.40
2023-03-06T20:34:02.636Z,25.20
2023-03-06T20:36:32.630Z,29.70
2023-03-06T20:39:02.297Z,30.00
2023-03-06T20:41:31.484Z,28.73
2023-03-06T20:44:00.162Z,29.77
2023-03-06T20:46:30.661Z,27.52
2023-03-06T20:48:59.547Z,28.17
2023-03-06T20:51:31.358Z,26.33
2023-03-06T20:54:01.053Z,26.05
2023-03-06T20:56:31.280Z,26.98
2023-03-06T20:58:59.490Z,28.00
2023-03-06T21:01:31.569Z,29.00
2023-03-06T21:04:00.415Z,28.48
2023-03-06T21:06:29.832Z,27.30
2023-03-06T21:08:58.631Z,24.40
2023-03-06T21:11:27.381Z,23.95
2023-03-06T21:13:56.036Z,23.80
2023-03-06T21:16:25.887Z,22.75
2023-03-06T21:18:56.934Z,23.17
2023-03-06T21:21:29.654Z,21.88
2023-03-06T21:23:57.912Z,21.75
2023-03-06T21:26:27.468Z,21.00
2023-03-06T21:28:57.029Z,22.85
2023-03-06T21:31:25.711Z,22.65
2023-03-06T21:33:53.646Z,21.63
2023-03-06T21:36:23.584Z,20.52
2023-03-06T21:38:52.853Z,20.55
2023-03-06T21:41:24.120Z,18.75
2023-03-06T21:43:55.583Z,20.52
2023-03-06T21:46:23.780Z,19.25
2023-03-06T21:48:51.738Z,18.13
2023-03-06T21:51:23.553Z,17.92
2023-03-06T21:53:54.456Z,18.52
2023-03-06T21:56:25.425Z,16.20
2023-03-06T21:58:53.854Z,16.75
2023-03-06T22:01:23.891Z,16.73
2023-03-06T22:03:52.626Z,16.20
2023-03-06T22:06:23.210Z,16.63
2023-03-06T22:08:53.025Z,16.90
2023-03-06T22:11:22.974Z,15.30
2023-03-06T22:13:52.882Z,18.08
2023-03-06T22:16:21.373Z,17.58
2023-03-06T22:18:50.620Z,17.20
2023-03-06T22:21:20.839Z,15.70
2023-03-06T22:23:52.259Z,17.88
2023-03-06T22:26:21.090Z,17.00
2023-03-06T22:28:49.059Z,17.27
2023-03-06T22:31:19.178Z,15.35
2023-03-06T22:33:47.568Z,16.98
2023-03-06T22:36:16.550Z,17.30
2023-03-06T22:38:46.105Z,16.92
2023-03-06T22:41:17.022Z,16.65
2023-03-06T22:43:45.130Z,16.63
2023-03-06T22:46:14.877Z,18.67
2023-03-06T22:48:43.274Z,16.95
2023-03-06T22:51:14.490Z,18.02
2023-03-06T22:53:42.870Z,18.80
2023-03-06T22:56:13.170Z,19.13
2023-03-06T22:58:44.651Z,18.38
2023-03-06T23:01:14.845Z,19.35
2023-03-06T23:03:44.455Z,18.00
2023-03-06T23:06:15.503Z,19.33
2023-03-06T23:08:44.230Z,17.15
2023-03-06T23:11:15.092Z,20.05
2023-03-06T23:13:44.564Z,19.30
2023-03-06T23:16:13.122Z,19.70
2023-03-06T23:18:41.568Z,18.38
2023-03-06T23:21:10.788Z,19.13
2023-03-06T23:23:39.121Z,18.83
2023-03-06T23:26:08.389Z,18.85
2023-03-06T23:28:36.451Z,18.48
2023-03-06T23:31:09.430Z,17.35
2023-03-06T23:33:38.734Z,17.98
2023-03-06T23:36:08.547Z,17.42
2023-03-06T23:38:36.762Z,16.75
2023-03-06T23:41:05.898Z,18.98
2023-03-06T23:43:34.106Z,17.77
2023-03-06T23:46:02.380Z,17.35
2023-03-06T23:48:32.054Z,17.92
2023-03-06T23:51:00.423Z,17.67
2023-03-06T23:53:28.365Z,16.98
2023-03-06T23:55:56.763Z,17.40
2023-03-06T23:58:24.655Z,17.85
